createdAt,value
2023-01-28T00:01:17.243Z,14.23
2023-01-28T00:03:43.857Z,14.23
2023-01-28T00:06:14.794Z,14.23
2023-01-28T00:08:42.022Z,14.25
2023-01-28T00:11:11.215Z,14.25
2023-01-28T00:13:38.072Z,14.26
2023-01-28T00:16:07.542Z,14.24
2023-01-28T00:18:34.587Z,14.24
2023-01-28T00:21:04.112Z,14.24
2023-01-28T00:23:33.612Z,14.24
2023-01-28T00:26:01.515Z,14.25
2023-01-28T00:28:28.550Z,14.24
2023-01-28T00:30:55.173Z,14.24
2023-01-28T00:33:21.838Z,14.23
2023-01-28T00:35:49.049Z,14.23
2023-01-28T00:38:16.040Z,14.24
2023-01-28T00:40:42.613Z,14.23
2023-01-28T00:43:09.207Z,14.22
2023-01-28T00:45:35.794Z,14.21
2023-01-28T00:48:02.370Z,14.21
2023-01-28T00:50:28.948Z,14.20
2023-01-28T00:52:55.537Z,14.21
2023-01-28T00:55:22.143Z,14.20
2023-01-28T00:57:48.867Z,14.21
2023-01-28T01:00:15.717Z,14.23
2023-01-28T01:02:42.769Z,14.22
2023-01-28T01:05:09.586Z,14.23
2023-01-28T01:07:42.016Z,14.24
2023-01-28T01:10:10.978Z,14.24
2023-01-28T01:12:38.248Z,14.24
2023-01-28T01:15:08.842Z,14.24
2023-01-28T01:17:37.462Z,14.24
2023-01-28T01:20:05.513Z,14.24
2023-01-28T01:22:35.953Z,14.24
2023-01-28T01:25:04.081Z,14.24
2023-01-28T01:27:31.412Z,14.24
2023-01-28T01:29:58.983Z,14.25
2023-01-28T01:32:29.336Z,14.22
2023-01-28T01:34:55.892Z,14.23
2023-01-28T01:37:22.474Z,14.23
2023-01-28T01:39:49.177Z,14.20
2023-01-28T01:42:16.259Z,14.21
2023-01-28T01:45:27.750Z,14.20
2023-01-28T01:48:05.567Z,14.20
2023-01-28T01:50:39.089Z,14.19
2023-01-28T01:53:17.239Z,14.18
2023-01-28T01:55:47.364Z,14.18
2023-01-28T01:58:16.778Z,14.18
2023-01-28T02:00:43.423Z,14.17
2023-01-28T02:03:11.292Z,14.15
2023-01-28T02:05:38.644Z,14.18
2023-01-28T02:08:25.520Z,14.19
2023-01-28T02:10:55.602Z,14.20
2023-01-28T02:13:26.881Z,14.22
2023-01-28T02:15:54.108Z,14.22
2023-01-28T02:18:20.755Z,14.23
2023-01-28T02:21:24.817Z,14.24
2023-01-28T02:24:15.669Z,14.25
2023-01-28T02:26:48.216Z,14.25
2023-01-28T02:29:24.019Z,14.25
2023-01-28T02:31:50.703Z,14.25
2023-01-28T02:34:48.574Z,14.23
2023-01-28T02:37:27.991Z,14.25
2023-01-28T02:39:58.891Z,14.24
2023-01-28T02:42:29.123Z,14.25
2023-01-28T02:44:55.719Z,14.25
2023-01-28T02:47:41.061Z,14.23
2023-01-28T02:50:10.316Z,14.24
2023-01-28T02:52:55.333Z,14.22
2023-01-28T02:55:39.227Z,14.22
2023-01-28T02:58:09.098Z,14.21
2023-01-28T03:00:51.104Z,14.20
2023-01-28T03:03:35.443Z,14.21
2023-01-28T03:06:11.258Z,14.19
2023-01-28T03:09:10.904Z,14.18
2023-01-28T03:12:00.127Z,14.17
2023-01-28T03:14:46.853Z,14.17
2023-01-28T03:17:37.221Z,14.18
2023-01-28T03:20:23.033Z,14.19
2023-01-28T03:23:10.768Z,14.19
2023-01-28T03:25:57.609Z,14.21
2023-01-28T03:28:43.159Z,14.20
2023-01-28T03:31:31.364Z,14.22
2023-01-28T03:34:17.412Z,14.22
2023-01-28T03:36:51.113Z,14.24
2023-01-28T03:39:20.127Z,14.23
2023-01-28T03:41:57.975Z,14.24
2023-01-28T03:44:43.756Z,14.24
2023-01-28T03:47:11.538Z,14.24
2023-01-28T03:49:42.570Z,14.23
2023-01-28T03:52:09.751Z,14.22
2023-01-28T03:54:36.558Z,14.23
2023-01-28T03:57:03.710Z,14.23
2023-01-28T03:59:30.312Z,14.22
2023-01-28T04:01:56.982Z,14.21
2023-01-28T04:04:24.370Z,14.20
2023-01-28T04:06:54.949Z,14.21
2023-01-28T04:09:22.181Z,14.18
2023-01-28T04:11:49.437Z,14.18
2023-01-28T04:14:16.314Z,14.19
2023-01-28T04:16:43.632Z,14.16
2023-01-28T04:19:10.685Z,14.17
2023-01-28T04:21:37.240Z,14.16
2023-01-28T04:24:04.260Z,14.13
2023-01-28T04:26:31.095Z,14.16
2023-01-28T04:28:57.658Z,14.16
2023-01-28T04:31:24.279Z,14.16
2023-01-28T04:33:50.909Z,14.17
2023-01-28T04:36:17.469Z,14.18
2023-01-28T04:38:44.234Z,14.22
2023-01-28T04:41:11.092Z,14.22
2023-01-28T04:43:37.644Z,14.23
2023-01-28T04:46:04.204Z,14.24
2023-01-28T04:48:31.411Z,14.24
2023-01-28T04:50:58.041Z,14.25
2023-01-28T04:53:24.655Z,14.26
2023-01-28T04:55:51.225Z,14.26
2023-01-28T04:58:17.783Z,14.26
2023-01-28T05:00:44.369Z,14.26
2023-01-28T05:03:10.934Z,14.26
2023-01-28T05:05:37.497Z,14.25
2023-01-28T05:08:07.310Z,14.25
2023-01-28T05:10:34.123Z,14.25
2023-01-28T05:13:01.013Z,14.24
2023-01-28T05:15:27.573Z,14.23
2023-01-28T05:17:56.152Z,14.22
2023-01-28T05:20:23.111Z,14.22
2023-01-28T05:22:49.778Z,14.21
2023-01-28T05:25:16.738Z,14.20
2023-01-28T05:27:43.464Z,14.19
2023-01-28T05:30:10.653Z,14.18
2023-01-28T05:32:37.249Z,14.18
2023-01-28T05:35:04.051Z,14.17
2023-01-28T05:37:30.600Z,14.15
2023-01-28T05:39:57.207Z,14.16
2023-01-28T05:42:24.095Z,14.17
2023-01-28T05:44:50.846Z,14.18
2023-01-28T05:47:17.661Z,14.19
2023-01-28T05:49:44.279Z,14.20
2023-01-28T05:52:10.855Z,14.20
2023-01-28T05:54:37.454Z,14.20
2023-01-28T05:57:04.564Z,14.21
2023-01-28T05:59:31.456Z,14.23
2023-01-28T06:01:58.033Z,14.23
2023-01-28T06:04:24.668Z,14.22
2023-01-28T06:06:51.228Z,14.22
2023-01-28T06:09:17.786Z,14.23
2023-01-28T06:11:45.617Z,14.22
2023-01-28T06:14:12.207Z,14.22
2023-01-28T06:16:38.782Z,14.22
2023-01-28T06:19:05.329Z,14.22
2023-01-28T06:21:31.950Z,14.22
2023-01-28T06:23:58.572Z,14.20
2023-01-28T06:26:25.194Z,14.19
2023-01-28T06:28:51.779Z,14.19
2023-01-28T06:31:19.105Z,14.17
2023-01-28T06:33:46.056Z,14.18
2023-01-28T06:36:12.624Z,14.16
2023-01-28T06:38:39.204Z,14.17
2023-01-28T06:41:05.758Z,14.16
2023-01-28T06:43:32.310Z,14.13
2023-01-28T06:45:59.114Z,14.17
2023-01-28T06:48:26.501Z,14.16
2023-01-28T06:50:53.583Z,14.17
2023-01-28T06:53:20.515Z,14.18
2023-01-28T06:55:47.083Z,14.19
2023-01-28T06:58:13.721Z,14.19
2023-01-28T07:00:40.289Z,14.21
2023-01-28T07:03:07.071Z,14.21
2023-01-28T07:05:33.792Z,14.24
2023-01-28T07:08:02.211Z,14.23
2023-01-28T07:10:29.310Z,14.23
2023-01-28T07:12:55.904Z,14.23
2023-01-28T07:15:22.875Z,14.24
2023-01-28T07:17:49.727Z,14.23
2023-01-28T07:20:17.533Z,14.23
2023-01-28T07:22:45.277Z,14.23
2023-01-28T07:25:13.207Z,14.21
2023-01-28T07:27:40.099Z,14.22
2023-01-28T07:30:07.131Z,14.22
2023-01-28T07:32:33.780Z,14.21
2023-01-28T07:35:00.347Z,14.20
2023-01-28T07:37:26.916Z,14.19
2023-01-28T07:39:53.463Z,14.19
2023-01-28T07:42:20.131Z,14.19
2023-01-28T07:44:46.737Z,14.18
2023-01-28T07:47:13.415Z,14.17
2023-01-28T07:49:40.007Z,14.17
2023-01-28T07:52:07.584Z,14.15
2023-01-28T07:54:34.724Z,14.16
2023-01-28T07:57:01.414Z,14.17
2023-01-28T07:59:28.370Z,14.17
2023-01-28T08:01:55.233Z,14.17
2023-01-28T08:04:22.130Z,14.18
2023-01-28T08:06:48.780Z,14.20
2023-01-28T08:09:15.360Z,14.21
2023-01-28T08:11:42.465Z,14.20
2023-01-28T08:14:11.053Z,14.20
2023-01-28T08:16:37.766Z,14.21
2023-01-28T08:19:04.360Z,14.22
2023-01-28T08:21:30.995Z,14.23
2023-01-28T08:23:57.575Z,14.23
2023-01-28T08:26:24.142Z,14.22
2023-01-28T08:28:51.732Z,14.22
2023-01-28T08:31:18.611Z,14.22
2023-01-28T08:33:45.273Z,14.22
2023-01-28T08:36:12.112Z,14.22
2023-01-28T08:38:38.714Z,14.22
2023-01-28T08:41:05.299Z,14.20
2023-01-28T08:43:31.866Z,14.20
2023-01-28T08:45:58.504Z,14.20
2023-01-28T08:48:25.176Z,14.19
2023-01-28T08:50:51.762Z,14.18
2023-01-28T08:53:20.503Z,14.20
2023-01-28T08:55:47.589Z,14.18
2023-01-28T08:58:16.739Z,14.19
2023-01-28T09:00:44.647Z,14.19
2023-01-28T09:03:11.305Z,14.19
2023-01-28T09:05:38.581Z,14.19
2023-01-28T09:08:07.465Z,14.19
2023-01-28T09:10:34.297Z,14.20
2023-01-28T09:13:05.880Z,14.22
2023-01-28T09:15:33.125Z,14.22
2023-01-28T09:17:59.734Z,14.23
2023-01-28T09:20:26.834Z,14.24
2023-01-28T09:22:53.851Z,14.24
2023-01-28T09:25:20.439Z,14.25
2023-01-28T09:27:47.021Z,14.25
2023-01-28T09:30:14.413Z,14.26
2023-01-28T09:32:41.115Z,14.25
2023-01-28T09:35:08.084Z,14.26
2023-01-28T09:37:34.687Z,14.25
2023-01-28T09:40:01.700Z,14.25
2023-01-28T09:42:50.925Z,14.24
2023-01-28T09:45:27.757Z,14.24
2023-01-28T09:47:57.246Z,14.24
2023-01-28T09:50:34.543Z,14.23
2023-01-28T09:53:23.050Z,14.21
2023-01-28T09:56:14.343Z,14.22
2023-01-28T09:58:42.257Z,14.21
2023-01-28T10:01:30.428Z,14.20
2023-01-28T10:04:09.267Z,14.20
2023-01-28T10:06:57.314Z,14.19
2023-01-28T10:09:58.119Z,14.18
2023-01-28T10:12:39.204Z,14.17
2023-01-28T10:15:21.010Z,14.18
2023-01-28T10:18:03.863Z,14.18
2023-01-28T10:20:50.114Z,14.19
2023-01-28T10:23:19.220Z,14.19
2023-01-28T10:25:48.343Z,14.22
2023-01-28T10:28:21.605Z,14.23
2023-01-28T10:30:49.136Z,14.22
2023-01-28T10:33:27.782Z,14.24
2023-01-28T10:35:56.059Z,14.24
2023-01-28T10:38:24.252Z,14.26
2023-01-28T10:40:50.948Z,14.25
2023-01-28T10:43:23.407Z,14.26
2023-01-28T10:46:13.189Z,14.25
2023-01-28T10:49:06.841Z,14.25
2023-01-28T10:51:38.598Z,14.25
2023-01-28T10:54:19.668Z,14.25
2023-01-28T10:56:47.591Z,14.25
2023-01-28T10:59:31.713Z,14.25
2023-01-28T11:02:00.221Z,14.25
2023-01-28T11:04:27.693Z,14.24
2023-01-28T11:06:58.820Z,14.25
2023-01-28T11:09:36.504Z,14.24
2023-01-28T11:12:13.818Z,14.22
2023-01-28T11:14:53.669Z,14.23
2023-01-28T11:17:23.088Z,14.22
2023-01-28T11:19:49.712Z,14.22
2023-01-28T11:22:42.164Z,14.22
2023-01-28T11:25:29.412Z,14.21
2023-01-28T11:27:56.678Z,14.22
2023-01-28T11:30:40.288Z,14.22
2023-01-28T11:33:12.859Z,14.23
2023-01-28T11:35:39.720Z,14.22
2023-01-28T11:38:18.763Z,14.23
2023-01-28T11:40:53.085Z,14.24
2023-01-28T11:43:23.203Z,14.24
2023-01-28T11:46:14.120Z,14.27
2023-01-28T11:48:51.487Z,14.26
2023-01-28T11:51:36.653Z,14.27
2023-01-28T11:54:30.938Z,14.27
2023-01-28T11:57:09.460Z,14.26
2023-01-28T11:59:43.357Z,14.28
2023-01-28T12:02:20.683Z,14.28
2023-01-28T12:05:19.527Z,14.28
2023-01-28T12:07:52.143Z,14.26
2023-01-28T12:10:22.079Z,14.25
2023-01-28T12:12:54.952Z,14.24
2023-01-28T12:15:31.138Z,14.23
2023-01-28T12:18:09.875Z,14.23
2023-01-28T12:20:47.794Z,14.23
2023-01-28T12:23:30.277Z,14.22
2023-01-28T12:26:06.667Z,14.19
2023-01-28T12:29:01.251Z,14.20
2023-01-28T12:31:30.774Z,14.18
2023-01-28T12:34:24.866Z,14.18
2023-01-28T12:36:57.107Z,14.18
2023-01-28T12:39:32.321Z,14.18
2023-01-28T12:42:30.933Z,14.19
2023-01-28T12:45:03.234Z,14.20
2023-01-28T12:47:35.975Z,14.21
2023-01-28T12:50:13.613Z,14.23
2023-01-28T12:52:48.206Z,14.23
2023-01-28T12:55:41.526Z,14.24
2023-01-28T12:58:16.702Z,14.23
2023-01-28T13:00:48.836Z,14.24
2023-01-28T13:03:28.951Z,14.27
2023-01-28T13:06:37.225Z,14.26
2023-01-28T13:09:14.004Z,14.26
2023-01-28T13:11:40.917Z,14.27
2023-01-28T13:14:07.776Z,14.27
2023-01-28T13:16:37.807Z,14.27
2023-01-28T13:19:19.716Z,14.26
2023-01-28T13:21:49.651Z,14.27
2023-01-28T13:24:16.315Z,14.26
2023-01-28T13:26:44.742Z,14.25
2023-01-28T13:29:14.189Z,14.24
2023-01-28T13:31:43.284Z,14.24
2023-01-28T13:34:36.319Z,14.23
2023-01-28T13:37:30.194Z,14.23
2023-01-28T13:40:21.303Z,14.21
2023-01-28T13:43:01.933Z,14.21
2023-01-28T13:45:29.085Z,14.20
2023-01-28T13:48:08.149Z,14.19
2023-01-28T13:50:41.599Z,14.20
2023-01-28T13:53:34.948Z,14.21
2023-01-28T13:56:05.414Z,14.22
2023-01-28T13:58:58.344Z,14.20
2023-01-28T14:01:29.203Z,14.23
2023-01-28T14:04:08.006Z,14.23
2023-01-28T14:06:49.651Z,14.24
2023-01-28T14:09:29.673Z,14.24
2023-01-28T14:12:20.398Z,14.25
2023-01-28T14:15:10.552Z,14.25
2023-01-28T14:17:46.514Z,14.26
2023-01-28T14:20:37.871Z,14.25
2023-01-28T14:23:06.267Z,14.24
2023-01-28T14:25:48.090Z,14.24
2023-01-28T14:28:33.430Z,14.24
2023-01-28T14:31:12.322Z,14.23
2023-01-28T14:33:39.317Z,14.23
2023-01-28T14:36:06.342Z,14.22
2023-01-28T14:38:39.039Z,14.22
2023-01-28T14:41:05.982Z,14.21
2023-01-28T14:43:32.656Z,14.19
2023-01-28T14:46:17.276Z,14.20
2023-01-28T14:49:02.558Z,14.20
2023-01-28T14:51:53.093Z,14.17
2023-01-28T14:54:23.171Z,14.17
2023-01-28T14:56:53.208Z,14.17
2023-01-28T14:59:43.516Z,14.18
2023-01-28T15:02:21.799Z,14.19
2023-01-28T15:04:49.293Z,14.19
2023-01-28T15:07:27.085Z,14.22
2023-01-28T15:10:06.659Z,14.23
2023-01-28T15:12:36.619Z,14.24
2023-01-28T15:15:20.328Z,14.24
2023-01-28T15:17:47.872Z,14.25
2023-01-28T15:20:22.967Z,14.26
2023-01-28T15:22:51.287Z,14.26
2023-01-28T15:25:22.860Z,14.27
2023-01-28T15:27:51.052Z,14.26
2023-01-28T15:30:20.794Z,14.27
2023-01-28T15:32:57.084Z,14.26
2023-01-28T15:35:23.657Z,14.26
2023-01-28T15:37:50.245Z,14.25
2023-01-28T15:40:21.542Z,14.25
2023-01-28T15:42:49.383Z,14.23
2023-01-28T15:45:21.574Z,14.24
2023-01-28T15:47:49.495Z,14.22
2023-01-28T15:50:24.965Z,14.22
2023-01-28T15:52:52.519Z,14.20
2023-01-28T15:55:40.696Z,14.20
2023-01-28T15:58:18.800Z,14.20
2023-01-28T16:00:46.267Z,14.19
2023-01-28T16:03:21.430Z,14.17
2023-01-28T16:05:57.689Z,14.17
2023-01-28T16:08:46.433Z,14.17
2023-01-28T16:11:13.701Z,14.18
2023-01-28T16:13:44.324Z,14.18
2023-01-28T16:16:11.787Z,14.20
2023-01-28T16:18:39.626Z,14.20
2023-01-28T16:21:10.352Z,14.21
2023-01-28T16:23:39.445Z,14.21
2023-01-28T16:26:27.734Z,14.21
2023-01-28T16:28:54.499Z,14.23
2023-01-28T16:31:21.457Z,14.23
2023-01-28T16:33:48.324Z,14.23
2023-01-28T16:36:17.057Z,14.24
2023-01-28T16:38:43.714Z,14.23
2023-01-28T16:41:40.791Z,14.23
2023-01-28T16:44:07.404Z,14.22
2023-01-28T16:46:34.022Z,14.22
2023-01-28T16:49:00.749Z,14.20
2023-01-28T16:51:27.524Z,14.21
2023-01-28T16:53:54.632Z,14.21
2023-01-28T16:56:44.413Z,14.20
2023-01-28T16:59:11.098Z,14.19
2023-01-28T17:01:37.796Z,14.19
2023-01-28T17:04:12.101Z,14.17
2023-01-28T17:06:44.418Z,14.17
2023-01-28T17:09:12.484Z,14.16
2023-01-28T17:11:42.297Z,14.17
2023-01-28T17:14:10.456Z,14.16
2023-01-28T17:16:37.394Z,14.16
2023-01-28T17:19:04.493Z,14.16
2023-01-28T17:21:31.349Z,14.16
2023-01-28T17:23:59.259Z,14.17
2023-01-28T17:26:26.054Z,14.18
2023-01-28T17:28:53.648Z,14.18
2023-01-28T17:31:21.435Z,14.19
2023-01-28T17:33:48.197Z,14.21
2023-01-28T17:36:14.764Z,14.21
2023-01-28T17:38:47.650Z,14.22
2023-01-28T17:41:14.672Z,14.22
2023-01-28T17:43:41.248Z,14.23
2023-01-28T17:46:14.922Z,14.24
2023-01-28T17:48:42.744Z,14.23
2023-01-28T17:51:09.574Z,14.23
2023-01-28T17:53:36.226Z,14.23
2023-01-28T17:56:02.801Z,14.21
2023-01-28T17:58:29.375Z,14.22
2023-01-28T18:00:55.950Z,14.22
2023-01-28T18:03:22.689Z,14.21
2023-01-28T18:05:59.254Z,14.20
2023-01-28T18:08:26.390Z,14.21
2023-01-28T18:10:53.117Z,14.19
2023-01-28T18:13:19.918Z,14.18
2023-01-28T18:15:46.786Z,14.16
2023-01-28T18:18:13.381Z,14.16
2023-01-28T18:20:39.923Z,14.16
2023-01-28T18:23:06.495Z,14.16
2023-01-28T18:25:33.045Z,14.16
2023-01-28T18:27:59.793Z,14.15
2023-01-28T18:30:26.351Z,14.14
2023-01-28T18:32:52.933Z,14.14
2023-01-28T18:35:19.595Z,14.14
2023-01-28T18:37:46.194Z,14.16
2023-01-28T18:40:13.126Z,14.16
2023-01-28T18:42:39.748Z,14.18
2023-01-28T18:45:06.805Z,14.20
2023-01-28T18:47:33.357Z,14.21
2023-01-28T18:49:59.951Z,14.21
2023-01-28T18:52:26.723Z,14.22
2023-01-28T18:54:53.806Z,14.21
2023-01-28T18:57:20.419Z,14.22
2023-01-28T18:59:47.476Z,14.22
2023-01-28T19:02:14.784Z,14.21
2023-01-28T19:04:41.459Z,14.22
2023-01-28T19:07:11.577Z,14.20
2023-01-28T19:09:38.523Z,14.20
2023-01-28T19:12:05.372Z,14.19
2023-01-28T19:14:32.053Z,14.20
2023-01-28T19:16:58.866Z,14.20
2023-01-28T19:19:25.665Z,14.20
2023-01-28T19:21:53.481Z,14.20
2023-01-28T19:24:20.388Z,14.19
2023-01-28T19:26:47.016Z,14.19
2023-01-28T19:29:15.975Z,14.19
2023-01-28T19:31:44.327Z,14.17
2023-01-28T19:34:11.087Z,14.19
2023-01-28T19:36:38.095Z,14.17
2023-01-28T19:39:07.170Z,14.16
2023-01-28T19:41:34.254Z,14.14
2023-01-28T19:44:00.857Z,14.17
2023-01-28T19:46:27.548Z,14.16
2023-01-28T19:48:54.690Z,14.16
2023-01-28T19:51:21.555Z,14.18
2023-01-28T19:53:50.837Z,14.19
2023-01-28T19:56:18.537Z,14.19
2023-01-28T19:58:45.684Z,14.21
2023-01-28T20:01:20.566Z,14.20
2023-01-28T20:03:50.658Z,14.21
2023-01-28T20:06:17.413Z,14.20
2023-01-28T20:08:44.749Z,14.21
2023-01-28T20:11:15.757Z,14.22
2023-01-28T20:13:45.849Z,14.21
2023-01-28T20:16:19.155Z,14.21
2023-01-28T20:18:56.825Z,14.20
2023-01-28T20:21:24.120Z,14.19
2023-01-28T20:23:52.851Z,14.20
2023-01-28T20:26:21.380Z,14.19
2023-01-28T20:28:49.064Z,14.19
2023-01-28T20:31:15.714Z,14.18
2023-01-28T20:33:42.443Z,14.17
2023-01-28T20:36:11.240Z,14.15
2023-01-28T20:38:40.024Z,14.16
2023-01-28T20:41:12.373Z,14.14
2023-01-28T20:43:40.811Z,14.13
2023-01-28T20:46:10.130Z,14.14
2023-01-28T20:48:36.683Z,14.13
2023-01-28T20:51:11.285Z,14.14
2023-01-28T20:53:38.716Z,14.12
2023-01-28T20:56:05.873Z,14.13
2023-01-28T20:58:33.256Z,14.14
2023-01-28T21:01:00.478Z,14.16
2023-01-28T21:03:27.045Z,14.16
2023-01-28T21:05:53.588Z,14.18
2023-01-28T21:08:20.268Z,14.18
2023-01-28T21:10:46.962Z,14.19
2023-01-28T21:13:14.438Z,14.20
2023-01-28T21:15:41.270Z,14.21
2023-01-28T21:18:07.834Z,14.22
2023-01-28T21:20:34.416Z,14.22
2023-01-28T21:23:00.993Z,14.22
2023-01-28T21:25:27.530Z,14.22
2023-01-28T21:27:54.108Z,14.21
2023-01-28T21:30:20.738Z,14.21
2023-01-28T21:32:47.289Z,14.21
2023-01-28T21:35:13.833Z,14.21
2023-01-28T21:37:46.071Z,14.21
2023-01-28T21:40:12.773Z,14.20
2023-01-28T21:42:39.324Z,14.18
2023-01-28T21:45:06.374Z,14.19
2023-01-28T21:47:32.948Z,14.17
2023-01-28T21:50:00.729Z,14.17
2023-01-28T21:52:27.371Z,14.17
2023-01-28T21:54:53.959Z,14.17
2023-01-28T21:57:20.521Z,14.15
2023-01-28T21:59:47.073Z,14.13
2023-01-28T22:02:14.994Z,14.14
2023-01-28T22:04:43.386Z,14.15
2023-01-28T22:07:11.908Z,14.14
2023-01-28T22:09:38.773Z,14.15
2023-01-28T22:12:07.963Z,14.17
2023-01-28T22:14:35.440Z,14.18
2023-01-28T22:17:02.296Z,14.18
2023-01-28T22:19:28.878Z,14.17
2023-01-28T22:21:55.440Z,14.19
2023-01-28T22:24:24.509Z,14.20
2023-01-28T22:26:52.683Z,14.20
2023-01-28T22:29:20.628Z,14.19
2023-01-28T22:31:48.392Z,14.19
2023-01-28T22:34:15.391Z,14.20
2023-01-28T22:36:42.256Z,14.19
2023-01-28T22:39:13.046Z,14.17
2023-01-28T22:41:40.108Z,14.19
2023-01-28T22:44:06.958Z,14.17
2023-01-28T22:46:34.645Z,14.18
2023-01-28T22:49:01.451Z,14.15
2023-01-28T22:51:30.700Z,14.17
2023-01-28T22:53:57.550Z,14.14
2023-01-28T22:56:26.529Z,14.13
2023-01-28T22:59:00.919Z,14.14
2023-01-28T23:01:28.044Z,14.13
2023-01-28T23:03:56.290Z,14.14
2023-01-28T23:06:24.272Z,14.11
2023-01-28T23:08:51.722Z,14.11
2023-01-28T23:11:28.484Z,14.10
2023-01-28T23:14:18.936Z,14.11
2023-01-28T23:17:05.005Z,14.12
2023-01-28T23:19:50.611Z,14.13
2023-01-28T23:22:40.422Z,14.15
2023-01-28T23:25:07.569Z,14.15
2023-01-28T23:27:34.439Z,14.17
2023-01-28T23:30:01.028Z,14.18
2023-01-28T23:32:27.737Z,14.19
2023-01-28T23:34:54.312Z,14.18
2023-01-28T23:37:20.862Z,14.18
2023-01-28T23:39:47.446Z,14.19
2023-01-28T23:42:16.748Z,14.19
2023-01-28T23:44:43.600Z,14.18
2023-01-28T23:47:10.795Z,14.20
2023-01-28T23:49:37.964Z,14.18
2023-01-28T23:52:05.508Z,14.17
2023-01-28T23:54:32.528Z,14.17
2023-01-28T23:56:59.472Z,14.16
2023-01-28T23:59:26.011Z,14.15
